createdAt,value
2017-11-17T00:01:19.322Z,37.13
2017-11-17T00:03:47.459Z,37.20
2017-11-17T00:06:15.609Z,36.05
2017-11-17T00:08:44.051Z,37.83
2017-11-17T00:11:12.258Z,38.15
2017-11-17T00:13:40.792Z,35.58
2017-11-17T00:16:08.975Z,38.70
2017-11-17T00:18:37.663Z,36.50
2017-11-17T00:21:05.834Z,38.70
2017-11-17T00:23:34.002Z,38.20
2017-11-17T00:26:02.683Z,33.88
2017-11-17T00:28:30.902Z,38.20
2017-11-17T00:30:59.678Z,38.00
2017-11-17T00:33:27.844Z,35.45
2017-11-17T00:35:55.999Z,37.97
2017-11-17T00:38:24.164Z,34.13
2017-11-17T00:40:52.317Z,37.33
2017-11-17T00:43:20.504Z,36.50
2017-11-17T00:45:48.663Z,34.53
2017-11-17T00:48:16.812Z,35.53
2017-11-17T00:50:45.743Z,34.90
2017-11-17T00:53:14.110Z,35.15
2017-11-17T00:55:42.280Z,35.50
2017-11-17T00:58:10.427Z,37.90
2017-11-17T01:00:39.371Z,37.28
2017-11-17T01:03:07.528Z,36.08
2017-11-17T01:05:35.703Z,34.22
2017-11-17T01:08:03.845Z,32.03
2017-11-17T01:10:32.784Z,35.33
2017-11-17T01:13:00.944Z,34.63
2017-11-17T01:15:29.121Z,32.90
2017-11-17T01:17:57.308Z,31.20
2017-11-17T01:20:25.478Z,34.78
2017-11-17T01:22:53.635Z,34.55
2017-11-17T01:25:21.776Z,36.40
2017-11-17T01:27:49.954Z,35.83
2017-11-17T01:30:18.110Z,35.75
2017-11-17T01:32:47.048Z,33.50
2017-11-17T01:35:15.226Z,33.85
2017-11-17T01:37:43.395Z,32.38
2017-11-17T01:40:11.564Z,31.02
2017-11-17T01:42:39.734Z,31.33
2017-11-17T01:45:07.919Z,33.33
2017-11-17T01:47:36.096Z,29.67
2017-11-17T01:50:04.244Z,33.38
2017-11-17T01:52:32.430Z,32.38
2017-11-17T01:55:00.609Z,29.63
2017-11-17T01:57:28.793Z,34.00
2017-11-17T01:59:56.959Z,38.85
2017-11-17T02:02:25.240Z,33.80
2017-11-17T02:04:53.404Z,31.15
2017-11-17T02:07:22.514Z,34.33
2017-11-17T02:09:50.679Z,33.22
2017-11-17T02:12:18.818Z,36.67
2017-11-17T02:14:46.979Z,33.55
2017-11-17T02:17:15.135Z,30.35
2017-11-17T02:19:44.066Z,31.30
2017-11-17T02:22:12.219Z,32.90
2017-11-17T02:24:40.426Z,33.72
2017-11-17T02:27:08.576Z,31.12
2017-11-17T02:29:36.748Z,33.90
2017-11-17T02:32:05.017Z,30.83
2017-11-17T02:34:33.175Z,33.17
2017-11-17T02:37:01.479Z,32.80
2017-11-17T02:39:29.642Z,30.80
2017-11-17T02:41:57.799Z,30.88
2017-11-17T02:44:25.966Z,32.42
2017-11-17T02:46:54.115Z,35.28
2017-11-17T02:49:23.060Z,31.67
2017-11-17T02:51:51.229Z,34.97
2017-11-17T02:54:19.408Z,31.12
2017-11-17T02:56:47.585Z,32.70
2017-11-17T02:59:15.736Z,32.60
2017-11-17T03:01:43.902Z,32.15
2017-11-17T03:04:12.080Z,31.55
2017-11-17T03:06:40.248Z,32.60
2017-11-17T03:09:08.400Z,30.52
2017-11-17T03:11:37.351Z,32.05
2017-11-17T03:14:05.494Z,30.90
2017-11-17T03:16:33.651Z,31.10
2017-11-17T03:19:01.811Z,31.62
2017-11-17T03:21:30.747Z,33.45
2017-11-17T03:23:58.901Z,29.50
2017-11-17T03:26:27.369Z,31.83
2017-11-17T03:28:56.314Z,34.30
2017-11-17T03:31:24.474Z,34.03
2017-11-17T03:33:52.617Z,30.52
2017-11-17T03:36:20.782Z,34.10
2017-11-17T03:38:48.932Z,31.35
2017-11-17T03:41:17.868Z,32.55
2017-11-17T03:43:46.006Z,33.28
2017-11-17T03:46:14.177Z,32.97
2017-11-17T03:48:43.102Z,32.00
2017-11-17T03:51:11.259Z,33.13
2017-11-17T03:53:39.436Z,33.65
2017-11-17T03:56:07.627Z,33.28
2017-11-17T03:58:35.814Z,32.80
2017-11-17T04:01:03.963Z,33.50
2017-11-17T04:03:32.110Z,32.65
2017-11-17T04:06:00.320Z,33.85
2017-11-17T04:08:28.588Z,29.95
2017-11-17T04:10:56.750Z,33.28
2017-11-17T04:13:24.925Z,34.38
2017-11-17T04:15:53.076Z,34.70
2017-11-17T04:18:21.631Z,32.33
2017-11-17T04:20:50.687Z,33.90
2017-11-17T04:23:18.873Z,33.13
2017-11-17T04:25:47.041Z,32.97
2017-11-17T04:28:15.206Z,33.92
2017-11-17T04:30:43.388Z,35.20
2017-11-17T04:33:11.556Z,35.95
2017-11-17T04:35:39.720Z,35.55
2017-11-17T04:38:07.862Z,36.38
2017-11-17T04:40:36.019Z,35.90
2017-11-17T04:43:04.939Z,37.65
2017-11-17T04:45:33.125Z,32.60
2017-11-17T04:48:01.280Z,36.88
2017-11-17T04:50:29.494Z,34.22
2017-11-17T04:52:57.755Z,36.20
2017-11-17T04:55:25.920Z,33.97
2017-11-17T04:57:54.102Z,34.78
2017-11-17T05:00:22.283Z,37.60
2017-11-17T05:02:50.437Z,35.08
2017-11-17T05:05:18.590Z,40.10
2017-11-17T05:07:46.765Z,36.72
2017-11-17T05:10:14.953Z,37.63
2017-11-17T05:12:43.128Z,37.97
2017-11-17T05:15:11.274Z,37.08
2017-11-17T05:17:39.431Z,34.88
2017-11-17T05:20:09.285Z,36.42
2017-11-17T05:22:37.456Z,34.80
2017-11-17T05:25:05.611Z,36.88
2017-11-17T05:27:33.808Z,35.53
2017-11-17T05:30:02.000Z,33.47
2017-11-17T05:32:30.191Z,33.22
2017-11-17T05:34:58.351Z,32.47
2017-11-17T05:37:26.561Z,32.58
2017-11-17T05:39:56.232Z,33.37
2017-11-17T05:42:24.392Z,32.20
2017-11-17T05:44:52.569Z,30.88
2017-11-17T05:47:20.715Z,31.17
2017-11-17T05:49:48.892Z,30.02
2017-11-17T05:52:17.116Z,30.07
2017-11-17T05:54:46.044Z,32.42
2017-11-17T05:57:14.214Z,31.30
2017-11-17T05:59:42.396Z,30.62
2017-11-17T06:02:10.567Z,31.63
2017-11-17T06:04:38.741Z,30.62
2017-11-17T06:07:06.888Z,32.92
2017-11-17T06:09:35.047Z,30.70
2017-11-17T06:12:03.972Z,27.08
2017-11-17T06:14:32.139Z,26.75
2017-11-17T06:17:00.287Z,24.48
2017-11-17T06:19:29.215Z,21.23
2017-11-17T06:21:57.377Z,23.92
2017-11-17T06:24:25.539Z,23.58
2017-11-17T06:26:53.692Z,23.95
2017-11-17T06:29:22.660Z,24.45
2017-11-17T06:31:50.797Z,24.50
2017-11-17T06:34:18.979Z,24.37
2017-11-17T06:36:47.141Z,23.20
2017-11-17T06:39:15.877Z,23.53
2017-11-17T06:41:44.052Z,22.30
2017-11-17T06:44:12.963Z,25.13
2017-11-17T06:46:41.242Z,23.95
2017-11-17T06:49:09.387Z,23.77
2017-11-17T06:51:37.550Z,23.80
2017-11-17T06:54:05.812Z,24.25
2017-11-17T06:56:34.908Z,23.02
2017-11-17T06:59:03.064Z,23.80
2017-11-17T07:01:31.250Z,22.05
2017-11-17T07:03:59.804Z,22.43
2017-11-17T07:06:27.972Z,25.70
2017-11-17T07:08:56.110Z,23.73
2017-11-17T07:11:25.056Z,25.30
2017-11-17T07:13:53.266Z,25.80
2017-11-17T07:16:21.447Z,23.12
2017-11-17T07:18:50.372Z,23.85
2017-11-17T07:21:18.550Z,22.80
2017-11-17T07:23:46.686Z,19.60
2017-11-17T07:26:15.609Z,23.20
2017-11-17T07:28:43.807Z,21.92
2017-11-17T07:31:11.963Z,21.20
2017-11-17T07:33:40.150Z,17.80
2017-11-17T07:36:08.313Z,17.73
2017-11-17T07:38:36.487Z,18.60
2017-11-17T07:41:04.682Z,20.80
2017-11-17T07:43:32.839Z,18.98
2017-11-17T07:46:00.993Z,19.48
2017-11-17T07:48:29.168Z,18.87
2017-11-17T07:50:57.334Z,16.17
2017-11-17T07:53:25.552Z,16.60
2017-11-17T07:55:53.736Z,15.85
2017-11-17T07:58:21.923Z,13.30
2017-11-17T08:00:50.835Z,13.60
2017-11-17T08:03:18.986Z,13.90
2017-11-17T08:05:48.028Z,11.15
2017-11-17T08:08:16.200Z,11.88
2017-11-17T08:10:44.350Z,11.75
2017-11-17T08:13:12.491Z,13.57
2017-11-17T08:15:41.593Z,14.35
2017-11-17T08:18:28.437Z,14.02
2017-11-17T08:20:56.604Z,12.50
2017-11-17T08:23:24.813Z,11.68
2017-11-17T08:25:53.310Z,13.33
2017-11-17T08:28:21.473Z,14.02
2017-11-17T08:30:49.642Z,12.10
2017-11-17T08:33:17.810Z,11.25
2017-11-17T08:35:46.017Z,11.32
2017-11-17T08:38:14.240Z,11.60
2017-11-17T08:40:42.523Z,10.90
2017-11-17T08:43:10.750Z,9.87
2017-11-17T08:45:39.681Z,10.47
2017-11-17T08:48:07.848Z,9.70
2017-11-17T08:50:36.741Z,9.03
2017-11-17T08:53:06.028Z,8.40
2017-11-17T08:55:36.480Z,9.27
2017-11-17T08:58:07.895Z,7.40
2017-11-17T09:00:36.130Z,7.17
2017-11-17T09:03:04.287Z,8.03
2017-11-17T09:05:32.437Z,6.93
2017-11-17T09:08:00.616Z,7.90
2017-11-17T09:10:29.455Z,7.93
2017-11-17T09:12:58.399Z,6.83
2017-11-17T09:15:26.547Z,7.70
2017-11-17T09:17:55.307Z,7.80
2017-11-17T09:20:25.072Z,7.90
2017-11-17T09:22:53.246Z,7.03
2017-11-17T09:25:21.431Z,7.40
2017-11-17T09:27:50.437Z,6.40
2017-11-17T09:30:18.717Z,5.70
2017-11-17T09:32:46.876Z,6.00
2017-11-17T09:35:15.056Z,8.30
2017-11-17T09:37:43.207Z,7.30
2017-11-17T09:40:11.384Z,6.50
2017-11-17T09:42:39.548Z,7.83
2017-11-17T09:45:07.720Z,7.37
2017-11-17T09:47:35.879Z,6.37
2017-11-17T09:50:04.115Z,6.23
2017-11-17T09:52:33.057Z,5.33
2017-11-17T09:55:01.211Z,5.07
2017-11-17T09:57:29.365Z,6.50
2017-11-17T09:59:57.555Z,6.47
2017-11-17T10:02:25.737Z,5.60
2017-11-17T10:04:53.909Z,6.10
2017-11-17T10:07:22.118Z,5.63
2017-11-17T10:09:50.271Z,6.70
2017-11-17T10:12:18.436Z,6.87
2017-11-17T10:14:46.587Z,4.83
2017-11-17T10:17:14.980Z,6.03
2017-11-17T10:19:43.121Z,6.13
2017-11-17T10:22:11.298Z,5.70
2017-11-17T10:27:36.544Z,5.20
2017-11-17T10:30:04.618Z,5.00
2017-11-17T10:32:32.740Z,6.07
2017-11-17T10:35:00.820Z,4.67
2017-11-17T10:37:28.892Z,4.60
2017-11-17T10:39:57.741Z,5.00
2017-11-17T10:42:25.847Z,5.90
2017-11-17T10:44:54.706Z,5.17
2017-11-17T10:47:22.799Z,4.57
2017-11-17T10:49:50.872Z,5.03
2017-11-17T10:52:18.944Z,3.83
2017-11-17T10:54:47.020Z,4.20
2017-11-17T10:57:15.889Z,4.17
2017-11-17T10:59:45.753Z,4.60
2017-11-17T11:02:13.821Z,4.83
2017-11-17T11:04:41.910Z,3.20
2017-11-17T11:07:09.984Z,4.80
2017-11-17T11:09:38.114Z,4.73
2017-11-17T11:12:06.996Z,4.63
2017-11-17T11:14:35.075Z,4.10
2017-11-17T11:17:03.935Z,3.83
2017-11-17T11:19:32.029Z,5.20
2017-11-17T11:22:01.715Z,3.77
2017-11-17T11:24:29.790Z,3.80
2017-11-17T11:26:57.890Z,3.77
2017-11-17T11:29:25.967Z,3.97
2017-11-17T11:31:54.045Z,5.10
2017-11-17T11:34:22.159Z,7.67
2017-11-17T11:36:50.228Z,4.47
2017-11-17T11:39:18.295Z,4.37
2017-11-17T11:41:46.390Z,5.30
2017-11-17T11:44:14.556Z,4.53
2017-11-17T11:46:42.732Z,4.83
2017-11-17T11:49:10.809Z,4.40
2017-11-17T11:51:38.892Z,3.17
2017-11-17T11:54:07.744Z,3.97
2017-11-17T11:56:35.817Z,4.47
2017-11-17T11:59:03.911Z,4.30
2017-11-17T12:01:32.019Z,4.17
2017-11-17T12:04:00.086Z,3.60
2017-11-17T12:06:28.160Z,3.87
2017-11-17T12:08:56.239Z,4.00
2017-11-17T12:11:24.924Z,3.33
2017-11-17T12:13:53.646Z,3.60
2017-11-17T12:16:21.725Z,3.40
2017-11-17T12:18:49.893Z,3.83
2017-11-17T12:21:17.988Z,3.73
2017-11-17T12:23:46.059Z,3.33
2017-11-17T12:26:14.909Z,3.40
2017-11-17T12:28:42.985Z,3.70
2017-11-17T12:31:11.069Z,3.33
2017-11-17T12:33:39.148Z,3.97
2017-11-17T12:36:07.424Z,4.60
2017-11-17T12:38:36.254Z,4.53
2017-11-17T12:41:04.315Z,5.13
2017-11-17T12:43:32.392Z,4.00
2017-11-17T12:46:00.473Z,3.23
2017-11-17T12:48:28.593Z,2.93
2017-11-17T12:50:56.665Z,3.30
2017-11-17T12:53:24.775Z,4.10
2017-11-17T12:55:52.853Z,3.50
2017-11-17T12:58:20.928Z,3.37
2017-11-17T13:00:49.003Z,4.20
2017-11-17T13:03:17.075Z,4.00
2017-11-17T13:05:45.140Z,3.10
2017-11-17T13:08:13.221Z,4.37
2017-11-17T13:10:41.300Z,3.60
2017-11-17T13:13:09.385Z,3.90
2017-11-17T13:15:37.465Z,4.53
2017-11-17T13:18:05.551Z,4.27
2017-11-17T13:20:33.626Z,3.50
2017-11-17T13:23:02.469Z,4.00
2017-11-17T13:25:30.617Z,3.23
2017-11-17T13:27:58.684Z,3.33
2017-11-17T13:30:26.861Z,3.40
2017-11-17T13:32:55.621Z,3.20
2017-11-17T13:35:24.470Z,2.90
2017-11-17T13:37:52.548Z,3.40
2017-11-17T13:40:20.667Z,3.10
2017-11-17T13:42:49.371Z,3.47
2017-11-17T13:45:17.481Z,4.00
2017-11-17T13:47:45.657Z,3.83
2017-11-17T13:50:13.738Z,4.10
2017-11-17T13:52:41.808Z,3.10
2017-11-17T13:55:09.871Z,3.80
2017-11-17T13:57:38.052Z,4.23
2017-11-17T14:00:06.120Z,4.13
2017-11-17T14:02:34.183Z,3.70
2017-11-17T14:05:02.280Z,3.43
2017-11-17T14:07:31.135Z,3.90
2017-11-17T14:09:59.204Z,3.50
2017-11-17T14:12:27.280Z,4.07
2017-11-17T14:14:55.356Z,4.57
2017-11-17T14:17:23.546Z,4.27
2017-11-17T14:19:52.385Z,5.20
2017-11-17T14:22:20.476Z,3.53
2017-11-17T14:24:49.341Z,4.20
2017-11-17T14:27:17.407Z,5.27
2017-11-17T14:29:45.553Z,4.53
2017-11-17T14:32:13.738Z,4.57
2017-11-17T14:34:41.873Z,4.30
2017-11-17T14:37:09.984Z,4.50
2017-11-17T14:39:38.092Z,3.47
2017-11-17T14:42:06.157Z,3.77
2017-11-17T14:44:34.288Z,4.10
2017-11-17T14:47:02.358Z,4.37
2017-11-17T14:49:31.224Z,3.77
2017-11-17T14:51:59.300Z,4.17
2017-11-17T14:54:28.158Z,3.87
2017-11-17T14:56:56.234Z,4.03
2017-11-17T14:59:24.433Z,4.30
2017-11-17T15:01:53.292Z,4.00
2017-11-17T15:04:21.378Z,3.50
2017-11-17T15:06:50.353Z,3.43
2017-11-17T15:09:18.556Z,3.80
2017-11-17T15:11:47.394Z,3.87
2017-11-17T15:14:15.462Z,4.03
2017-11-17T15:16:43.537Z,3.60
2017-11-17T15:19:11.611Z,3.30
2017-11-17T15:21:39.707Z,3.30
2017-11-17T15:24:07.772Z,5.40
2017-11-17T15:26:35.882Z,4.47
2017-11-17T15:29:04.473Z,5.78
2017-11-17T15:31:32.665Z,8.00
2017-11-17T15:34:00.728Z,4.67
2017-11-17T15:36:28.816Z,5.10
2017-11-17T15:38:56.921Z,7.00
2017-11-17T15:41:25.509Z,13.40
2017-11-17T15:43:54.353Z,7.18
2017-11-17T15:46:23.085Z,6.82
2017-11-17T15:48:51.148Z,4.72
2017-11-17T15:51:19.319Z,7.20
2017-11-17T15:53:47.400Z,5.65
2017-11-17T15:56:15.478Z,5.85
2017-11-17T15:58:44.351Z,4.70
2017-11-17T16:01:12.438Z,12.65
2017-11-17T16:03:41.271Z,14.93
2017-11-17T16:06:11.729Z,13.32
2017-11-17T16:08:39.816Z,8.77
2017-11-17T16:11:07.892Z,9.27
2017-11-17T16:13:36.737Z,9.52
2017-11-17T16:16:04.800Z,6.90
2017-11-17T16:18:32.897Z,6.85
2017-11-17T16:21:00.971Z,6.68
2017-11-17T16:23:29.049Z,4.85
2017-11-17T16:25:57.216Z,5.93
2017-11-17T16:28:25.288Z,6.75
2017-11-17T16:30:53.470Z,8.13
2017-11-17T16:33:21.551Z,9.70
2017-11-17T16:35:50.382Z,9.35
2017-11-17T16:38:18.448Z,7.45
2017-11-17T16:40:46.571Z,10.00
2017-11-17T16:43:14.638Z,9.07
2017-11-17T16:45:42.712Z,9.35
2017-11-17T16:48:10.826Z,9.63
2017-11-17T16:50:38.965Z,9.65
2017-11-17T16:53:07.120Z,6.85
2017-11-17T16:55:35.208Z,6.82
2017-11-17T16:58:03.269Z,7.32
2017-11-17T17:00:31.349Z,7.03
2017-11-17T17:02:59.413Z,6.55
2017-11-17T17:05:27.512Z,6.12
2017-11-17T17:07:55.591Z,6.72
2017-11-17T17:10:23.667Z,7.85
2017-11-17T17:12:51.745Z,6.15
2017-11-17T17:15:19.816Z,6.50
2017-11-17T17:17:47.900Z,6.15
2017-11-17T17:20:15.993Z,6.10
2017-11-17T17:22:44.064Z,6.55
2017-11-17T17:25:12.141Z,5.53
2017-11-17T17:27:40.210Z,7.05
2017-11-17T17:30:08.282Z,7.20
2017-11-17T17:32:36.357Z,7.37
2017-11-17T17:35:04.429Z,8.75
2017-11-17T17:37:32.525Z,8.70
2017-11-17T17:40:01.351Z,9.32
2017-11-17T17:42:29.424Z,9.85
2017-11-17T17:44:57.491Z,8.88
2017-11-17T17:47:25.563Z,9.07
2017-11-17T17:49:53.631Z,9.82
2017-11-17T17:52:21.719Z,7.93
2017-11-17T17:54:49.793Z,10.68
2017-11-17T17:57:17.864Z,19.02
2017-11-17T17:59:45.941Z,22.77
2017-11-17T18:02:19.909Z,17.48
2017-11-17T18:04:47.992Z,14.80
2017-11-17T18:07:16.061Z,15.55
2017-11-17T18:09:44.138Z,15.90
2017-11-17T18:12:12.696Z,15.25
2017-11-17T18:14:40.774Z,13.27
2017-11-17T18:17:08.853Z,12.00
2017-11-17T18:19:36.962Z,11.55
2017-11-17T18:22:05.024Z,11.88
2017-11-17T18:24:33.155Z,9.77
2017-11-17T18:27:01.964Z,10.55
2017-11-17T18:29:30.268Z,8.45
2017-11-17T18:31:58.439Z,8.10
2017-11-17T18:34:26.528Z,10.07
2017-11-17T18:36:54.580Z,9.57
2017-11-17T18:39:22.664Z,11.57
2017-11-17T18:41:50.881Z,9.32
2017-11-17T18:44:18.916Z,9.85
2017-11-17T18:46:46.986Z,13.55
2017-11-17T18:49:15.820Z,16.45
2017-11-17T18:51:43.952Z,14.18
2017-11-17T18:54:12.028Z,11.63
2017-11-17T18:56:40.151Z,10.88
2017-11-17T18:59:09.164Z,9.85
2017-11-17T19:01:37.248Z,8.45
2017-11-17T19:04:06.088Z,8.65
2017-11-17T19:06:34.159Z,10.93
2017-11-17T19:09:02.229Z,8.90
2017-11-17T19:11:30.340Z,10.30
2017-11-17T19:13:58.396Z,6.60
2017-11-17T19:16:26.466Z,7.57
2017-11-17T19:18:54.644Z,7.87
2017-11-17T19:21:22.709Z,9.40
2017-11-17T19:23:51.203Z,7.87
2017-11-17T19:26:19.366Z,7.85
2017-11-17T19:28:47.445Z,8.20
2017-11-17T19:31:15.607Z,8.93
2017-11-17T19:33:43.689Z,9.07
2017-11-17T19:36:11.755Z,11.12
2017-11-17T19:38:40.347Z,10.00
2017-11-17T19:41:08.409Z,6.40
2017-11-17T19:43:36.498Z,7.10
2017-11-17T19:46:04.657Z,7.10
2017-11-17T19:48:32.724Z,7.28
2017-11-17T19:51:00.790Z,6.95
2017-11-17T19:53:28.889Z,6.80
2017-11-17T19:55:57.758Z,7.47
2017-11-17T19:58:25.830Z,6.90
2017-11-17T20:00:53.904Z,6.90
2017-11-17T20:03:21.989Z,7.80
2017-11-17T20:05:50.840Z,7.32
2017-11-17T20:08:19.076Z,6.62
2017-11-17T20:10:47.152Z,6.93
2017-11-17T20:13:15.602Z,6.00
2017-11-17T20:15:44.444Z,6.70
2017-11-17T20:18:12.541Z,6.12
2017-11-17T20:20:40.619Z,6.57
2017-11-17T20:23:08.779Z,6.65
2017-11-17T20:25:36.868Z,5.93
2017-11-17T20:28:04.941Z,7.35
2017-11-17T20:30:33.788Z,6.65
2017-11-17T20:33:01.885Z,6.93
2017-11-17T20:35:29.976Z,7.10
2017-11-17T20:37:58.805Z,10.65
2017-11-17T20:40:26.875Z,8.52
2017-11-17T20:42:56.490Z,7.57
2017-11-17T20:45:24.558Z,8.63
2017-11-17T20:47:52.670Z,14.13
2017-11-17T20:50:20.838Z,15.32
2017-11-17T20:52:49.225Z,11.68
2017-11-17T20:55:17.310Z,13.82
2017-11-17T20:57:46.136Z,11.07
2017-11-17T21:00:14.197Z,9.20
2017-11-17T21:02:42.264Z,7.80
2017-11-17T21:05:10.833Z,10.98
2017-11-17T21:07:38.921Z,6.95
2017-11-17T21:10:07.044Z,8.18
2017-11-17T21:12:35.725Z,8.82
2017-11-17T21:15:03.884Z,8.05
2017-11-17T21:17:31.939Z,7.70
2017-11-17T21:20:00.003Z,10.15
2017-11-17T21:22:28.090Z,14.07
2017-11-17T21:24:56.287Z,9.55
2017-11-17T21:27:24.347Z,9.82
2017-11-17T21:29:52.419Z,9.40
2017-11-17T21:32:20.484Z,9.98
2017-11-17T21:34:48.577Z,9.55
2017-11-17T21:37:16.745Z,10.90
2017-11-17T21:39:44.811Z,10.30
2017-11-17T21:42:12.883Z,8.68
2017-11-17T21:44:40.972Z,8.45
2017-11-17T21:47:09.061Z,8.88
2017-11-17T21:49:37.145Z,9.48
2017-11-17T21:52:05.214Z,9.70
2017-11-17T21:54:33.294Z,8.95
2017-11-17T21:57:01.366Z,9.63
2017-11-17T21:59:29.417Z,8.75
2017-11-17T22:01:57.487Z,8.82
2017-11-17T22:04:25.608Z,9.13
2017-11-17T22:06:53.681Z,8.10
2017-11-17T22:09:21.751Z,8.35
2017-11-17T22:11:49.822Z,8.98
2017-11-17T22:14:17.990Z,9.18
2017-11-17T22:16:46.060Z,9.40
2017-11-17T22:19:14.120Z,8.40
2017-11-17T22:21:42.205Z,8.50
2017-11-17T22:24:10.266Z,7.70
2017-11-17T22:26:38.352Z,8.65
2017-11-17T22:29:06.418Z,7.72
2017-11-17T22:31:34.497Z,8.27
2017-11-17T22:34:03.368Z,8.13
2017-11-17T22:36:31.657Z,7.65
2017-11-17T22:39:00.103Z,7.00
2017-11-17T22:41:28.181Z,9.65
2017-11-17T22:43:56.245Z,10.30
2017-11-17T22:46:25.197Z,8.38
2017-11-17T22:48:54.032Z,8.88
2017-11-17T22:51:22.101Z,7.55
2017-11-17T22:53:50.821Z,7.93
2017-11-17T22:56:18.877Z,6.93
2017-11-17T22:58:46.949Z,7.35
2017-11-17T23:01:15.027Z,8.43
2017-11-17T23:03:43.109Z,8.13
2017-11-17T23:06:12.357Z,7.35
2017-11-17T23:08:40.424Z,7.05
2017-11-17T23:11:08.590Z,9.15
2017-11-17T23:13:36.673Z,6.68
2017-11-17T23:16:04.755Z,7.37
2017-11-17T23:18:32.828Z,7.03
2017-11-17T23:21:00.884Z,7.35
2017-11-17T23:23:28.959Z,9.55
2017-11-17T23:25:57.057Z,14.07
2017-11-17T23:28:25.125Z,8.10
2017-11-17T23:30:53.196Z,6.80
2017-11-17T23:33:21.296Z,31.73
2017-11-17T23:35:49.369Z,23.50
2017-11-17T23:38:18.216Z,14.57
2017-11-17T23:40:46.295Z,12.43
2017-11-17T23:43:14.365Z,32.00
2017-11-17T23:45:42.448Z,10.40
2017-11-17T23:48:10.513Z,6.97
2017-11-17T23:50:38.592Z,64.10
2017-11-17T23:53:06.681Z,34.33
2017-11-17T23:55:35.532Z,20.33
2017-11-17T23:58:03.601Z,9.25
